PWSweather.com
Personal Weather Stations
Station Observations
WATERF01
WaterfordIE

WaterfordIE

Lat: 52.2412507, Lon: -7.1414691

Elevation: 65

Station Type: Davis Vantage Vue

Latest ConditionsUpdated 9:30:01 PM GMT Friday, Feb 24, 2017
Currently Today's Max Today's Min Today's Average
Temperature 48.2°F9.0°C 48.6°F9.2°C 34.5°F1.4°C 43.2°F6.2°C
Dew Point 43.3°F6.3°C 43.3°F6.3°C 30.5°F-0.8°C 38.1°F3.4°C
Winds 9.2 mph W14.8 kmh W 12.7 mph WNW20.4 kmh WNW - 4.6 mph 7.4 kmh
Wind Gusts 15.0 mph24.1 kmh 20.7 mph33.3 kmh - -
Humidity 83% 86% 74% 82%
Pressure 29.90 in1012.5 mb 30.09 in1019.0 mb 29.90 in1012.5 mb -
Precipitation - 0.01 in0.3 mm - -
Hour Temp Dew Point Humidity Winds Wind Gusts Pressure Precip Precip Rate Daily Precip Total
09:30 PM 48.2°F9.0°C 43.3°F6.3°C 83% 9.2 mph W14.8 kmh W 15.0 mph24.1 kmh 29.90 in1012.5 mb - 0.00 in0.0 mm 0.01 in0.3 mm
09:20 PM 48.2°F9.0°C 43.3°F6.3°C 83% 11.5 mph WSW18.5 kmh WSW 19.6 mph31.5 kmh 29.90 in1012.5 mb - 0.00 in0.0 mm 0.01 in0.3 mm
09:10 PM 48.2°F9.0°C 43.3°F6.3°C 83% 11.5 mph W18.5 kmh W 20.7 mph33.3 kmh 29.90 in1012.5 mb - 0.00 in0.0 mm 0.01 in0.3 mm
09:00 PM 48.0°F8.9°C 43.1°F6.2°C 83% 8.1 mph WSW13.0 kmh WSW 18.4 mph29.6 kmh 29.92 in1013.2 mb - 0.00 in0.0 mm 0.01 in0.3 mm
08:50 PM 47.8°F8.8°C 42.9°F6.1°C 83% 9.2 mph SSW14.8 kmh SSW 12.7 mph20.4 kmh 29.92 in1013.2 mb - 0.00 in0.0 mm 0.01 in0.3 mm
08:40 PM 47.7°F8.7°C 42.8°F6.0°C 83% 10.4 mph WSW16.7 kmh WSW 19.6 mph31.5 kmh 29.92 in1013.2 mb - 0.00 in0.0 mm 0.01 in0.3 mm
08:30 PM 47.9°F8.8°C 43.3°F6.3°C 84% 12.7 mph WNW20.4 kmh WNW 20.7 mph33.3 kmh 29.92 in1013.2 mb - 0.00 in0.0 mm 0.01 in0.3 mm
08:20 PM 47.8°F8.8°C 43.2°F6.2°C 84% 11.5 mph W18.5 kmh W 18.4 mph29.6 kmh 29.92 in1013.2 mb - 0.00 in0.0 mm 0.01 in0.3 mm
08:10 PM 47.7°F8.7°C 43.1°F6.2°C 84% 10.4 mph WSW16.7 kmh WSW 15.0 mph24.1 kmh 29.92 in1013.2 mb - 0.00 in0.0 mm 0.01 in0.3 mm
08:00 PM 47.6°F8.7°C 43.0°F6.1°C 84% 10.4 mph SW16.7 kmh SW 18.4 mph29.6 kmh 29.93 in1013.5 mb - 0.00 in0.0 mm 0.01 in0.3 mm
07:50 PM 47.4°F8.6°C 43.1°F6.2°C 85% 8.1 mph WSW13.0 kmh WSW 13.8 mph22.2 kmh 29.94 in1013.9 mb - 0.00 in0.0 mm 0.01 in0.3 mm
07:40 PM 47.3°F8.5°C 42.7°F5.9°C 84% 5.8 mph W9.3 kmh W 16.1 mph25.9 kmh 29.94 in1013.9 mb - 0.00 in0.0 mm 0.01 in0.3 mm
07:30 PM 47.3°F8.5°C 42.7°F5.9°C 84% 8.1 mph WSW13.0 kmh WSW 12.7 mph20.4 kmh 29.94 in1013.9 mb - 0.00 in0.0 mm 0.01 in0.3 mm
07:20 PM 47.7°F8.7°C 42.8°F6.0°C 83% 6.9 mph WSW11.1 kmh WSW 11.5 mph18.5 kmh 29.95 in1014.2 mb - 0.00 in0.0 mm 0.01 in0.3 mm
07:10 PM 47.9°F8.8°C 43.0°F6.1°C 83% 8.1 mph SSW13.0 kmh SSW 13.8 mph22.2 kmh 29.96 in1014.6 mb - 0.00 in0.0 mm 0.01 in0.3 mm
07:00 PM 47.8°F8.8°C 42.9°F6.1°C 83% 10.4 mph W16.7 kmh W 19.6 mph31.5 kmh 29.95 in1014.2 mb - 0.00 in0.0 mm 0.01 in0.3 mm
06:50 PM 47.7°F8.7°C 42.8°F6.0°C 83% 6.9 mph WNW11.1 kmh WNW 13.8 mph22.2 kmh 29.95 in1014.2 mb - 0.00 in0.0 mm 0.01 in0.3 mm
06:40 PM 47.7°F8.7°C 43.1°F6.2°C 84% 10.4 mph WSW16.7 kmh WSW 16.1 mph25.9 kmh 29.95 in1014.2 mb - 0.00 in0.0 mm 0.01 in0.3 mm
06:30 PM 47.5°F8.6°C 42.9°F6.1°C 84% 6.9 mph WNW11.1 kmh WNW 13.8 mph22.2 kmh 29.95 in1014.2 mb - 0.00 in0.0 mm 0.01 in0.3 mm
06:20 PM 47.4°F8.6°C 42.8°F6.0°C 84% 9.2 mph W14.8 kmh W 13.8 mph22.2 kmh 29.95 in1014.2 mb - 0.00 in0.0 mm 0.01 in0.3 mm
06:10 PM 47.7°F8.7°C 43.1°F6.2°C 84% 8.1 mph W13.0 kmh W 13.8 mph22.2 kmh 29.96 in1014.6 mb - 0.00 in0.0 mm 0.01 in0.3 mm
06:00 PM 47.5°F8.6°C 42.9°F6.1°C 84% 8.1 mph WSW13.0 kmh WSW 18.4 mph29.6 kmh 29.96 in1014.6 mb - 0.00 in0.0 mm 0.01 in0.3 mm
05:50 PM 47.7°F8.7°C 43.1°F6.2°C 84% 11.5 mph WSW18.5 kmh WSW 18.4 mph29.6 kmh 29.95 in1014.2 mb - 0.01 in0.3 mm 0.01 in0.3 mm
05:40 PM 47.8°F8.8°C 43.2°F6.2°C 84% 10.4 mph W16.7 kmh W 18.4 mph29.6 kmh 29.96 in1014.6 mb - 0.00 in0.0 mm 0.00 in0.0 mm
05:30 PM 47.8°F8.8°C 43.2°F6.2°C 84% 5.8 mph WNW9.3 kmh WNW 13.8 mph22.2 kmh 29.97 in1014.9 mb - 0.00 in0.0 mm 0.00 in0.0 mm
05:20 PM 47.8°F8.8°C 43.2°F6.2°C 84% 6.9 mph WNW11.1 kmh WNW 11.5 mph18.5 kmh 29.98 in1015.2 mb - 0.00 in0.0 mm 0.00 in0.0 mm
05:10 PM 47.8°F8.8°C 43.2°F6.2°C 84% 8.1 mph W13.0 kmh W 12.7 mph20.4 kmh 29.99 in1015.6 mb - 0.00 in0.0 mm 0.00 in0.0 mm
05:00 PM 47.7°F8.7°C 42.8°F6.0°C 83% 4.6 mph WSW7.4 kmh WSW 8.1 mph13.0 kmh 30.00 in1015.9 mb - 0.00 in0.0 mm 0.00 in0.0 mm
04:50 PM 47.7°F8.7°C 42.8°F6.0°C 83% 6.9 mph W11.1 kmh W 12.7 mph20.4 kmh 30.00 in1015.9 mb - 0.00 in0.0 mm 0.00 in0.0 mm
04:40 PM 47.8°F8.8°C 42.9°F6.1°C 83% 8.1 mph WSW13.0 kmh WSW 12.7 mph20.4 kmh 30.00 in1015.9 mb - 0.00 in0.0 mm 0.00 in0.0 mm
04:30 PM 47.9°F8.8°C 42.7°F5.9°C 82% 6.9 mph WSW11.1 kmh WSW 16.1 mph25.9 kmh 30.00 in1015.9 mb - 0.00 in0.0 mm 0.00 in0.0 mm
04:20 PM 48.0°F8.9°C 42.8°F6.0°C 82% 5.8 mph SW9.3 kmh SW 8.1 mph13.0 kmh 30.00 in1015.9 mb - 0.00 in0.0 mm 0.00 in0.0 mm
04:10 PM 48.0°F8.9°C 42.8°F6.0°C 82% 8.1 mph W13.0 kmh W 11.5 mph18.5 kmh 30.00 in1015.9 mb - 0.00 in0.0 mm 0.00 in0.0 mm
04:00 PM 48.2°F9.0°C 43.3°F6.3°C 83% 6.9 mph W11.1 kmh W 12.7 mph20.4 kmh 29.99 in1015.6 mb - 0.00 in0.0 mm 0.00 in0.0 mm
03:50 PM 48.3°F9.1°C 43.3°F6.3°C 83% 8.1 mph W13.0 kmh W 12.7 mph20.4 kmh 29.99 in1015.6 mb - 0.00 in0.0 mm 0.00 in0.0 mm
03:40 PM 48.3°F9.1°C 43.1°F6.2°C 82% 9.2 mph WSW14.8 kmh WSW 13.8 mph22.2 kmh 30.00 in1015.9 mb - 0.00 in0.0 mm 0.00 in0.0 mm
03:30 PM 48.4°F9.1°C 43.2°F6.2°C 82% 8.1 mph WNW13.0 kmh WNW 13.8 mph22.2 kmh 30.01 in1016.3 mb - 0.00 in0.0 mm 0.00 in0.0 mm
03:20 PM 48.3°F9.1°C 43.1°F6.2°C 82% 5.8 mph WSW9.3 kmh WSW 11.5 mph18.5 kmh 30.01 in1016.3 mb - 0.00 in0.0 mm 0.00 in0.0 mm
03:10 PM 48.2°F9.0°C 42.9°F6.1°C 82% 4.6 mph W7.4 kmh W 8.1 mph13.0 kmh 30.01 in1016.3 mb - 0.00 in0.0 mm 0.00 in0.0 mm
03:00 PM 48.5°F9.2°C 42.6°F5.9°C 80% 8.1 mph SW13.0 kmh SW 11.5 mph18.5 kmh 30.02 in1016.6 mb - 0.00 in0.0 mm 0.00 in0.0 mm
02:50 PM 48.5°F9.2°C 42.6°F5.9°C 80% 6.9 mph WSW11.1 kmh WSW 13.8 mph22.2 kmh 30.02 in1016.6 mb - 0.00 in0.0 mm 0.00 in0.0 mm
02:40 PM 48.6°F9.2°C 42.7°F5.9°C 80% 6.9 mph WNW11.1 kmh WNW 11.5 mph18.5 kmh 30.03 in1016.9 mb - 0.00 in0.0 mm 0.00 in0.0 mm
02:30 PM 48.5°F9.2°C 42.6°F5.9°C 80% 5.8 mph WNW9.3 kmh WNW 11.5 mph18.5 kmh 30.04 in1017.3 mb - 0.00 in0.0 mm 0.00 in0.0 mm
02:20 PM 48.4°F9.1°C 42.2°F5.7°C 79% 4.6 mph SSW7.4 kmh SSW 11.5 mph18.5 kmh 30.04 in1017.3 mb - 0.00 in0.0 mm 0.00 in0.0 mm
02:10 PM 48.3°F9.1°C 42.1°F5.6°C 79% 4.6 mph NNW7.4 kmh NNW 8.1 mph13.0 kmh 30.04 in1017.3 mb - 0.00 in0.0 mm 0.00 in0.0 mm
02:00 PM 48.2°F9.0°C 42.0°F5.6°C 79% 5.8 mph WSW9.3 kmh WSW 9.2 mph14.8 kmh 30.05 in1017.6 mb - 0.00 in0.0 mm 0.00 in0.0 mm
01:50 PM 48.2°F9.0°C 42.0°F5.6°C 79% 3.5 mph WNW5.6 kmh WNW 5.8 mph9.3 kmh 30.05 in1017.6 mb - 0.00 in0.0 mm 0.00 in0.0 mm
01:40 PM 47.9°F8.8°C 41.7°F5.4°C 79% 5.8 mph WSW9.3 kmh WSW 9.2 mph14.8 kmh 30.05 in1017.6 mb - 0.00 in0.0 mm 0.00 in0.0 mm
01:30 PM 48.0°F8.9°C 41.5°F5.3°C 78% 6.9 mph WSW11.1 kmh WSW 12.7 mph20.4 kmh 30.05 in1017.6 mb - 0.00 in0.0 mm 0.00 in0.0 mm
01:20 PM 48.1°F8.9°C 41.2°F5.1°C 77% 5.8 mph W9.3 kmh W 11.5 mph18.5 kmh 30.05 in1017.6 mb - 0.00 in0.0 mm 0.00 in0.0 mm
01:10 PM 48.1°F8.9°C 40.9°F4.9°C 76% 9.2 mph WSW14.8 kmh WSW 13.8 mph22.2 kmh 30.05 in1017.6 mb - 0.00 in0.0 mm 0.00 in0.0 mm
01:00 PM 48.4°F9.1°C 40.5°F4.7°C 74% 6.9 mph W11.1 kmh W 13.8 mph22.2 kmh 30.05 in1017.6 mb - 0.00 in0.0 mm 0.00 in0.0 mm
12:50 PM 48.6°F9.2°C 40.7°F4.8°C 74% 4.6 mph W7.4 kmh W 8.1 mph13.0 kmh 30.06 in1017.9 mb - 0.00 in0.0 mm 0.00 in0.0 mm
12:40 PM 48.5°F9.2°C 40.6°F4.8°C 74% 5.8 mph NW9.3 kmh NW 8.1 mph13.0 kmh 30.07 in1018.3 mb - 0.00 in0.0 mm 0.00 in0.0 mm
12:30 PM 48.1°F8.9°C 40.2°F4.6°C 74% 3.5 mph W5.6 kmh W 5.8 mph9.3 kmh 30.08 in1018.6 mb - 0.00 in0.0 mm 0.00 in0.0 mm
12:20 PM 48.4°F9.1°C 40.5°F4.7°C 74% 6.9 mph WSW11.1 kmh WSW 11.5 mph18.5 kmh 30.09 in1019.0 mb - 0.00 in0.0 mm 0.00 in0.0 mm
12:10 PM 48.5°F9.2°C 40.9°F4.9°C 75% 5.8 mph WSW9.3 kmh WSW 9.2 mph14.8 kmh 30.08 in1018.6 mb - 0.00 in0.0 mm 0.00 in0.0 mm
12:00 PM 48.1°F8.9°C 40.9°F4.9°C 76% 4.6 mph NW7.4 kmh NW 6.9 mph11.1 kmh 30.08 in1018.6 mb - 0.00 in0.0 mm 0.00 in0.0 mm
11:50 AM 48.2°F9.0°C 41.3°F5.2°C 77% 6.9 mph W11.1 kmh W 11.5 mph18.5 kmh 30.08 in1018.6 mb - 0.00 in0.0 mm 0.00 in0.0 mm
11:40 AM 47.8°F8.8°C 41.0°F5.0°C 77% 5.8 mph W9.3 kmh W 8.1 mph13.0 kmh 30.08 in1018.6 mb - 0.00 in0.0 mm 0.00 in0.0 mm
11:30 AM 47.5°F8.6°C 41.0°F5.0°C 78% 4.6 mph NW7.4 kmh NW 9.2 mph14.8 kmh 30.08 in1018.6 mb - 0.00 in0.0 mm 0.00 in0.0 mm
11:20 AM 47.0°F8.3°C 40.5°F4.7°C 78% 4.6 mph WSW7.4 kmh WSW 8.1 mph13.0 kmh 30.08 in1018.6 mb - 0.00 in0.0 mm 0.00 in0.0 mm
11:10 AM 46.6°F8.1°C 40.7°F4.8°C 80% 3.5 mph WSW5.6 kmh WSW 5.8 mph9.3 kmh 30.09 in1019.0 mb - 0.00 in0.0 mm 0.00 in0.0 mm
11:00 AM 46.3°F7.9°C 40.1°F4.5°C 79% 4.6 mph WSW7.4 kmh WSW 6.9 mph11.1 kmh 30.09 in1019.0 mb - 0.00 in0.0 mm 0.00 in0.0 mm
10:50 AM 46.4°F8.0°C 40.3°F4.6°C 79% 4.6 mph WSW7.4 kmh WSW 9.2 mph14.8 kmh 30.08 in1018.6 mb - 0.00 in0.0 mm 0.00 in0.0 mm
10:40 AM 46.2°F7.9°C 40.7°F4.8°C 81% 3.5 mph W5.6 kmh W 5.8 mph9.3 kmh 30.08 in1018.6 mb - 0.00 in0.0 mm 0.00 in0.0 mm
10:30 AM 45.4°F7.4°C 40.2°F4.6°C 82% 3.5 mph NW5.6 kmh NW 5.8 mph9.3 kmh 30.08 in1018.6 mb - 0.00 in0.0 mm 0.00 in0.0 mm
10:20 AM 44.6°F7.0°C 39.5°F4.2°C 82% 1.2 mph W1.9 kmh W 2.3 mph3.7 kmh 30.07 in1018.3 mb - 0.00 in0.0 mm 0.00 in0.0 mm
10:10 AM 44.0°F6.7°C 39.1°F3.9°C 83% 3.5 mph W5.6 kmh W 5.8 mph9.3 kmh 30.08 in1018.6 mb - 0.00 in0.0 mm 0.00 in0.0 mm
10:00 AM 43.3°F6.3°C 38.8°F3.8°C 84% 3.5 mph WNW5.6 kmh WNW 5.8 mph9.3 kmh 30.07 in1018.3 mb - 0.00 in0.0 mm 0.00 in0.0 mm
09:50 AM 42.4°F5.8°C 37.9°F3.3°C 84% 3.5 mph W5.6 kmh W 5.8 mph9.3 kmh 30.08 in1018.6 mb - 0.00 in0.0 mm 0.00 in0.0 mm
09:40 AM 41.6°F5.3°C 37.1°F2.8°C 84% 3.5 mph WNW5.6 kmh WNW 5.8 mph9.3 kmh 30.08 in1018.6 mb - 0.00 in0.0 mm 0.00 in0.0 mm
09:30 AM 40.6°F4.8°C 36.2°F2.3°C 84% 1.2 mph W1.9 kmh W 2.3 mph3.7 kmh 30.09 in1019.0 mb - 0.00 in0.0 mm 0.00 in0.0 mm
09:20 AM 40.2°F4.6°C 35.8°F2.1°C 84% 2.3 mph W3.7 kmh W 5.8 mph9.3 kmh 30.09 in1019.0 mb - 0.00 in0.0 mm 0.00 in0.0 mm
09:10 AM 39.7°F4.3°C 35.6°F2.0°C 85% 2.3 mph WNW3.7 kmh WNW 4.6 mph7.4 kmh 30.09 in1019.0 mb - 0.00 in0.0 mm 0.00 in0.0 mm
09:00 AM 38.7°F3.7°C 34.6°F1.4°C 85% Calm Calm -- 30.09 in1019.0 mb - 0.00 in0.0 mm 0.00 in0.0 mm
08:50 AM 38.2°F3.4°C 34.1°F1.2°C 85% Calm Calm -- 30.09 in1019.0 mb - 0.00 in0.0 mm 0.00 in0.0 mm
08:40 AM 37.7°F3.2°C 33.6°F0.9°C 85% Calm Calm -- 30.09 in1019.0 mb - 0.00 in0.0 mm 0.00 in0.0 mm
08:30 AM 36.6°F2.6°C 32.6°F0.3°C 85% Calm Calm -- 30.09 in1019.0 mb - 0.00 in0.0 mm 0.00 in0.0 mm
08:20 AM 36.7°F2.6°C 32.6°F0.3°C 85% Calm Calm -- 30.08 in1018.6 mb - 0.00 in0.0 mm 0.00 in0.0 mm
08:10 AM 35.5°F1.9°C 31.4°F-0.3°C 85% Calm Calm -- 30.08 in1018.6 mb - 0.00 in0.0 mm 0.00 in0.0 mm
08:00 AM 35.4°F1.9°C 31.3°F-0.4°C 85% Calm Calm -- 30.08 in1018.6 mb - 0.00 in0.0 mm 0.00 in0.0 mm
07:50 AM 34.7°F1.5°C 30.7°F-0.7°C 85% Calm Calm -- 30.07 in1018.3 mb - 0.00 in0.0 mm 0.00 in0.0 mm
07:40 AM 34.5°F1.4°C 30.5°F-0.8°C 85% Calm Calm -- 30.07 in1018.3 mb - 0.00 in0.0 mm 0.00 in0.0 mm
07:30 AM 35.0°F1.7°C 30.9°F-0.6°C 85% Calm Calm -- 30.07 in1018.3 mb - 0.00 in0.0 mm 0.00 in0.0 mm
07:20 AM 34.9°F1.6°C 30.8°F-0.7°C 85% Calm Calm -- 30.07 in1018.3 mb - 0.00 in0.0 mm 0.00 in0.0 mm
07:10 AM 34.9°F1.6°C 30.6°F-0.8°C 84% Calm Calm -- 30.06 in1017.9 mb - 0.00 in0.0 mm 0.00 in0.0 mm
07:00 AM 35.5°F1.9°C 31.1°F-0.5°C 84% Calm Calm -- 30.07 in1018.3 mb - 0.00 in0.0 mm 0.00 in0.0 mm
06:50 AM 36.6°F2.6°C 32.2°F0.1°C 84% Calm Calm -- 30.07 in1018.3 mb - 0.00 in0.0 mm 0.00 in0.0 mm
06:40 AM 36.9°F2.7°C 32.5°F0.3°C 84% Calm Calm -- 30.07 in1018.3 mb - 0.00 in0.0 mm 0.00 in0.0 mm
06:30 AM 37.1°F2.8°C 32.7°F0.4°C 84% 2.3 mph WNW3.7 kmh WNW 4.6 mph7.4 kmh 30.07 in1018.3 mb - 0.00 in0.0 mm 0.00 in0.0 mm
06:20 AM 37.1°F2.8°C 33.0°F0.6°C 85% 2.3 mph W3.7 kmh W 5.8 mph9.3 kmh 30.07 in1018.3 mb - 0.00 in0.0 mm 0.00 in0.0 mm
06:10 AM 36.7°F2.6°C 32.6°F0.3°C 85% 3.5 mph W5.6 kmh W 5.8 mph9.3 kmh 30.07 in1018.3 mb - 0.00 in0.0 mm 0.00 in0.0 mm
06:00 AM 36.2°F2.3°C 32.1°F0.1°C 85% 2.3 mph W3.7 kmh W 2.3 mph3.7 kmh 30.06 in1017.9 mb - 0.00 in0.0 mm 0.00 in0.0 mm
05:50 AM 36.1°F2.3°C 32.3°F0.2°C 86% Calm Calm 2.3 mph3.7 kmh 30.06 in1017.9 mb - 0.00 in0.0 mm 0.00 in0.0 mm
05:40 AM 36.1°F2.3°C 32.3°F0.2°C 86% Calm Calm -- 30.05 in1017.6 mb - 0.00 in0.0 mm 0.00 in0.0 mm
05:30 AM 36.4°F2.4°C 32.6°F0.3°C 86% Calm Calm -- 30.05 in1017.6 mb - 0.00 in0.0 mm 0.00 in0.0 mm
05:20 AM 36.7°F2.6°C 32.9°F0.5°C 86% Calm Calm 2.3 mph3.7 kmh 30.05 in1017.6 mb - 0.00 in0.0 mm 0.00 in0.0 mm
05:10 AM 37.0°F2.8°C 33.2°F0.7°C 86% Calm Calm 2.3 mph3.7 kmh 30.05 in1017.6 mb - 0.00 in0.0 mm 0.00 in0.0 mm
05:00 AM 37.1°F2.8°C 33.3°F0.7°C 86% 2.3 mph W3.7 kmh W 4.6 mph7.4 kmh 30.05 in1017.6 mb - 0.00 in0.0 mm 0.00 in0.0 mm
04:50 AM 37.1°F2.8°C 33.3°F0.7°C 86% 3.5 mph WNW5.6 kmh WNW 5.8 mph9.3 kmh 30.04 in1017.3 mb - 0.00 in0.0 mm 0.00 in0.0 mm
04:40 AM 37.1°F2.8°C 33.3°F0.7°C 86% 3.5 mph WNW5.6 kmh WNW 5.8 mph9.3 kmh 30.04 in1017.3 mb - 0.00 in0.0 mm 0.00 in0.0 mm
04:30 AM 36.9°F2.7°C 33.1°F0.6°C 86% 2.3 mph WNW3.7 kmh WNW 4.6 mph7.4 kmh 30.04 in1017.3 mb - 0.00 in0.0 mm 0.00 in0.0 mm
04:20 AM 37.1°F2.8°C 33.3°F0.7°C 86% 3.5 mph W5.6 kmh W 5.8 mph9.3 kmh 30.04 in1017.3 mb - 0.00 in0.0 mm 0.00 in0.0 mm
04:10 AM 37.1°F2.8°C 33.3°F0.7°C 86% 3.5 mph WNW5.6 kmh WNW 5.8 mph9.3 kmh 30.03 in1016.9 mb - 0.00 in0.0 mm 0.00 in0.0 mm
04:00 AM 36.9°F2.7°C 33.1°F0.6°C 86% 2.3 mph WNW3.7 kmh WNW 5.8 mph9.3 kmh 30.03 in1016.9 mb - 0.00 in0.0 mm 0.00 in0.0 mm
03:50 AM 37.1°F2.8°C 33.0°F0.6°C 85% 2.3 mph WNW3.7 kmh WNW 5.8 mph9.3 kmh 30.02 in1016.6 mb - 0.00 in0.0 mm 0.00 in0.0 mm
03:40 AM 37.5°F3.1°C 33.4°F0.8°C 85% 1.2 mph WNW1.9 kmh WNW 5.8 mph9.3 kmh 30.02 in1016.6 mb - 0.00 in0.0 mm 0.00 in0.0 mm
03:30 AM 37.7°F3.2°C 33.6°F0.9°C 85% 2.3 mph WNW3.7 kmh WNW 5.8 mph9.3 kmh 30.02 in1016.6 mb - 0.00 in0.0 mm 0.00 in0.0 mm
03:20 AM 37.7°F3.2°C 33.6°F0.9°C 85% 4.6 mph WNW7.4 kmh WNW 8.1 mph13.0 kmh 30.01 in1016.3 mb - 0.00 in0.0 mm 0.00 in0.0 mm
03:10 AM 37.5°F3.1°C 33.1°F0.6°C 84% 2.3 mph WSW3.7 kmh WSW 4.6 mph7.4 kmh 30.01 in1016.3 mb - 0.00 in0.0 mm 0.00 in0.0 mm
03:00 AM 38.0°F3.3°C 33.0°F0.6°C 82% 2.3 mph W3.7 kmh W 5.8 mph9.3 kmh 30.01 in1016.3 mb - 0.00 in0.0 mm 0.00 in0.0 mm
02:50 AM 38.8°F3.8°C 33.7°F0.9°C 82% 1.2 mph W1.9 kmh W 4.6 mph7.4 kmh 30.01 in1016.3 mb - 0.00 in0.0 mm 0.00 in0.0 mm
02:40 AM 39.3°F4.1°C 34.3°F1.3°C 82% 1.2 mph WNW1.9 kmh WNW 2.3 mph3.7 kmh 30.01 in1016.3 mb - 0.00 in0.0 mm 0.00 in0.0 mm
02:30 AM 39.5°F4.2°C 34.2°F1.2°C 81% Calm Calm 2.3 mph3.7 kmh 30.01 in1016.3 mb - 0.00 in0.0 mm 0.00 in0.0 mm
02:20 AM 39.7°F4.3°C 34.3°F1.3°C 81% 3.5 mph WNW5.6 kmh WNW 5.8 mph9.3 kmh 30.00 in1015.9 mb - 0.00 in0.0 mm 0.00 in0.0 mm
02:10 AM 39.5°F4.2°C 34.2°F1.2°C 81% 3.5 mph W5.6 kmh W 5.8 mph9.3 kmh 30.00 in1015.9 mb - 0.00 in0.0 mm 0.00 in0.0 mm
02:00 AM 39.6°F4.2°C 34.2°F1.2°C 81% 2.3 mph WNW3.7 kmh WNW 4.6 mph7.4 kmh 30.00 in1015.9 mb - 0.00 in0.0 mm 0.00 in0.0 mm
01:50 AM 39.5°F4.2°C 34.2°F1.2°C 81% 2.3 mph W3.7 kmh W 4.6 mph7.4 kmh 30.00 in1015.9 mb - 0.00 in0.0 mm 0.00 in0.0 mm
01:40 AM 39.7°F4.3°C 34.0°F1.1°C 80% 2.3 mph W3.7 kmh W 5.8 mph9.3 kmh 29.99 in1015.6 mb - 0.00 in0.0 mm 0.00 in0.0 mm
01:30 AM 40.0°F4.4°C 34.4°F1.3°C 80% Calm Calm 2.3 mph3.7 kmh 29.99 in1015.6 mb - 0.00 in0.0 mm 0.00 in0.0 mm
01:20 AM 39.9°F4.4°C 34.5°F1.4°C 81% 4.6 mph W7.4 kmh W 6.9 mph11.1 kmh 29.99 in1015.6 mb - 0.00 in0.0 mm 0.00 in0.0 mm
01:10 AM 39.7°F4.3°C 34.3°F1.3°C 81% 4.6 mph WNW7.4 kmh WNW 8.1 mph13.0 kmh 29.98 in1015.2 mb - 0.00 in0.0 mm 0.00 in0.0 mm
01:00 AM 39.7°F4.3°C 34.0°F1.1°C 80% 3.5 mph W5.6 kmh W 6.9 mph11.1 kmh 29.98 in1015.2 mb - 0.00 in0.0 mm 0.00 in0.0 mm
12:50 AM 39.8°F4.3°C 34.1°F1.2°C 80% 3.5 mph W5.6 kmh W 5.8 mph9.3 kmh 29.97 in1014.9 mb - 0.00 in0.0 mm 0.00 in0.0 mm
12:40 AM 39.8°F4.3°C 34.1°F1.2°C 80% 3.5 mph W5.6 kmh W 8.1 mph13.0 kmh 29.97 in1014.9 mb - 0.00 in0.0 mm 0.00 in0.0 mm
12:30 AM 39.8°F4.3°C 34.4°F1.3°C 81% 4.6 mph W7.4 kmh W 6.9 mph11.1 kmh 29.97 in1014.9 mb - 0.00 in0.0 mm 0.00 in0.0 mm
12:20 AM 39.8°F4.3°C 34.4°F1.3°C 81% 3.5 mph WNW5.6 kmh WNW 6.9 mph11.1 kmh 29.96 in1014.6 mb - 0.00 in0.0 mm 0.00 in0.0 mm
12:10 AM 39.8°F4.3°C 34.5°F1.4°C 81% 4.6 mph W7.4 kmh W 6.9 mph11.1 kmh 29.96 in1014.6 mb - 0.00 in0.0 mm 0.00 in0.0 mm
12:00 AM 40.1°F4.5°C 34.7°F1.5°C 81% 2.3 mph WNW3.7 kmh WNW 5.8 mph9.3 kmh 29.96 in1014.6 mb - 0.00 in0.0 mm 0.00 in0.0 mm